Aeroporto :
LOGIN :

Iscrizione | Disclaimer

   EN    FR    IT 

 










Sommario :    VFR   VFR Marginale   IFR   IFR Intensivo   IFR Molto Intensivo
Visibilità : 
Base nubi : 
>= 8 km
>= 3000ft
5 / 8 km
1000 / 3000 ft
1500m / 5 km
500 / 1000 ft
800 / 1500m
200 / 500 ft
< 800m
< 200 ft
Simboli :   Temporali  Nebbia  Neve Forte  Precipitazioni Forti  Vento > 20 kt
SIGMETs :   Varie  Temporali  Ghiacco  Turbolenza  Onda orograficha  Ceneri Vulcaniche






- Altitudine del aeroporto : 776 ft
- Codice IATA : RMS


ETAR - Ramstein Air Base

ULTIMO METAR :
  • 051856Z AUTO 26009G20KT 9999 OVC042 24/16 A2995 RMK AO2 SLP136 T02370157 FZRANO $

METARs OBSOLETI :
  • 051756Z AUTO 23006KT 9999 OVC046 24/16 A2995 RMK AO2 SLP136 T02400155 10260 20218 57012 FZRANO $
  • 051656Z AUTO 22009G17KT 9999 SCT050 24/15 A2997 RMK AO2 SLP142 T02440153 FZRANO $

TAF TAF ETAR
Valido dal 05 a 18 ore il 07 a 00 ore UTC


051800Z 0518/0624 25010G20KT 9999 BKN040 510003 QNH2995INS
BECMG 0523/0524 27010G20KT 9000 -SHRA BKN030 510003 QNH2995INS
BECMG 0601/0602 28010G20KT 9999 NSW SCT030 BKN040 510003 QNH2997INS
BECMG 0608/0609 28015G25KT 9999 BKN050 520004 QNH3003INS
BECMG 0617/0618 30006KT 9999 SCT050 QNH3008INS TX24/0518Z TN11/0604Z



MetMap, La meteo Aeronautica in un colpo d'occhio ! - Copyright ORBIFLY Dicembre 2007 - Disclaimer

ORBIFLY MET'MAP TEAM :

Programmazione e sviluppo : Alexandra Zaïnal
Concezione : Baudouin d'Aumeries
Aiuto per la programmazione : Marc-Olivier Méhu
Supporto tecnico e logistico : Manuel Goepfert
Aiuto per la traduzione : Arnaldo La Scala

Contatto : metmap@orbifly.com




FONTI E CREDITI :

   NOAA